Time;durP1;ratioP1;P1;durP2;ratioP2;P2;SDS_P1;SDS_P2;PMS_P1;PMS_P2;Temp;Humidity;BMP_temperature;BMP_pressure;BME280_temperature;BME280_humidity;BME280_pressure;Samples;Min_cycle;Max_cycle;Signal;HPM_P1;HPM_P2
2024/01/10 00:00:17;;;;;;;31.40;26.40;;;;;;;;;;43532;267;3032201;-34
2024/01/10 00:02:54;;;;;;;31.40;26.20;;;;;;;;;;44215;267;3032175;-34
2024/01/10 00:04:49;;;;;;;;;;;;;;;;;;43522;274;3031868;-34
2024/01/10 00:06:41;;;;;;;32.50;26.40;;;;;;;;;;43502;279;3031182;-35
2024/01/10 00:08:35;;;;;;;30.70;26.30;;;;;;;;;;44250;279;3032567;-34
2024/01/10 00:10:26;;;;;;;31.50;26.80;;;;;;;;;;44170;280;3031496;-35
2024/01/10 00:12:16;;;;;;;31.00;26.10;;;;;;;;;;44211;278;3031451;-34
2024/01/10 00:14:10;;;;;;;30.10;26.20;;;;;;;;;;44220;270;3030942;-34
2024/01/10 00:16:02;;;;;;;39.50;32.80;;;;;;;;;;44220;275;3031830;-33
2024/01/10 00:17:46;;;;;;;31.10;26.60;;;;;;;;;;43975;275;3037534;-35
2024/01/10 00:19:48;;;;;;;30.70;26.60;;;;;;;;;;44230;270;3031785;-34
2024/01/10 00:21:42;;;;;;;33.30;27.30;;;;;;;;;;44293;275;3031683;-35
2024/01/10 00:23:34;;;;;;;30.60;26.00;;;;;;;;;;43802;267;3031995;-35
2024/01/10 00:25:28;;;;;;;30.20;26.10;;;;;;;;;;43593;271;3031651;-35
2024/01/10 00:27:29;;;;;;;31.30;26.30;;;;;;;;;;44259;270;3031588;-34
2024/01/10 00:29:24;;;;;;;31.50;26.70;;;;;;;;;;44206;275;3031083;-35
2024/01/10 00:31:21;;;;;;;31.00;26.30;;;;;;;;;;43500;278;3031327;-34
2024/01/10 00:33:13;;;;;;;29.50;25.80;;;;;;;;;;43625;267;3038154;-34
2024/01/10 00:35:07;;;;;;;29.70;25.80;;;;;;;;;;43569;278;3032432;-34
2024/01/10 00:36:53;;;;;;;31.10;26.00;;;;;;;;;;43577;286;3031569;-34
2024/01/10 00:38:44;;;;;;;30.30;26.20;;;;;;;;;;43565;271;3031489;-34
2024/01/10 00:40:37;;;;;;;31.30;26.30;;;;;;;;;;43807;272;3031020;-34
2024/01/10 00:42:36;;;;;;;31.70;26.30;;;;;;;;;;44122;272;3031108;-34
2024/01/10 00:46:04;;;;;;;31.60;26.10;;;;;;;;;;44261;307;3011670;-34
2024/01/10 00:47:55;;;;;;;31.00;26.30;;;;;;;;;;43193;295;3031213;-33
2024/01/10 00:49:40;;;;;;;29.30;25.50;;;;;;;;;;43183;282;3031745;-33
2024/01/10 00:51:31;;;;;;;31.00;26.10;;;;;;;;;;43333;275;3032166;-34
2024/01/10 00:53:22;;;;;;;30.30;24.90;;;;;;;;;;43336;283;3031985;-34
2024/01/10 00:55:16;;;;;;;29.80;25.20;;;;;;;;;;43830;279;3032260;-33
2024/01/10 00:57:06;;;;;;;31.30;26.30;;;;;;;;;;43321;291;3031030;-34
2024/01/10 00:58:57;;;;;;;31.40;25.90;;;;;;;;;;43321;283;3031193;-34
2024/01/10 01:00:44;;;;;;;;;;;;;;;;;;43135;281;3031323;-34
2024/01/10 01:02:40;;;;;;;30.80;24.60;;;;;;;;;;44078;290;3031820;-34
2024/01/10 01:04:41;;;;;;;31.40;25.10;;;;;;;;;;44012;281;3032019;-34
2024/01/10 01:06:43;;;;;;;30.30;24.60;;;;;;;;;;44083;279;3031506;-34
2024/01/10 01:08:33;;;;;;;31.40;25.40;;;;;;;;;;44003;274;3031059;-34
2024/01/10 01:10:31;;;;;;;29.20;25.10;;;;;;;;;;43391;278;3031002;-34
2024/01/10 01:12:23;;;;;;;30.90;24.80;;;;;;;;;;43548;279;3031579;-33
2024/01/10 01:14:13;;;;;;;30.70;24.90;;;;;;;;;;43548;279;3031573;-34
2024/01/10 01:16:17;;;;;;;30.90;25.60;;;;;;;;;;44196;271;3031155;-34
2024/01/10 01:18:14;;;;;;;29.40;24.80;;;;;;;;;;43647;275;3031970;-33
2024/01/10 01:20:04;;;;;;;29.80;25.30;;;;;;;;;;43419;280;3031830;-34
2024/01/10 01:21:59;;;;;;;31.00;25.00;;;;;;;;;;43450;268;3030974;-34
2024/01/10 01:23:56;;;;;;;29.50;24.00;;;;;;;;;;43533;275;3031982;-34
2024/01/10 01:25:55;;;;;;;29.90;24.20;;;;;;;;;;44213;275;3031435;-33
2024/01/10 01:27:46;;;;;;;29.40;24.40;;;;;;;;;;44178;279;3031191;-35
2024/01/10 01:29:44;;;;;;;30.10;24.20;;;;;;;;;;44261;275;3031484;-34
2024/01/10 01:31:42;;;;;;;29.70;24.40;;;;;;;;;;43689;279;3031980;-33
2024/01/10 01:33:38;;;;;;;29.00;23.60;;;;;;;;;;44267;268;3031869;-33
2024/01/10 01:35:34;;;;;;;29.80;24.50;;;;;;;;;;44086;275;3031703;-33
2024/01/10 01:37:26;;;;;;;31.20;25.50;;;;;;;;;;43537;278;3031854;-33
2024/01/10 01:39:19;;;;;;;28.80;23.90;;;;;;;;;;43540;271;3038010;-34
2024/01/10 01:41:08;;;;;;;29.30;24.60;;;;;;;;;;44233;287;3032148;-34
2024/01/10 01:43:26;;;;;;;29.50;24.70;;;;;;;;;;44272;276;3030962;-34
2024/01/10 01:45:27;;;;;;;29.00;23.70;;;;;;;;;;44169;279;3031483;-33
2024/01/10 01:47:23;;;;;;;30.40;24.60;;;;;;;;;;44195;267;3032213;-34
2024/01/10 01:49:16;;;;;;;28.20;24.20;;;;;;;;;;44081;275;3031419;-34
2024/01/10 01:51:09;;;;;;;29.80;24.60;;;;;;;;;;43483;279;3037533;-34
2024/01/10 01:52:55;;;;;;;31.00;25.70;;;;;;;;;;43624;271;3031456;-34
2024/01/10 01:54:50;;;;;;;30.50;25.40;;;;;;;;;;44386;271;3031599;-34
2024/01/10 01:56:42;;;;;;;30.10;24.70;;;;;;;;;;44354;271;3030945;-34
2024/01/10 01:58:35;;;;;;;29.30;24.30;;;;;;;;;;44379;272;3031188;-34
2024/01/10 02:00:31;;;;;;;28.30;24.40;;;;;;;;;;44313;272;3031272;-34
2024/01/10 02:02:25;;;;;;;30.40;25.10;;;;;;;;;;43887;272;3037647;-33
2024/01/10 02:04:18;;;;;;;28.80;24.30;;;;;;;;;;44345;264;3039972;-34
2024/01/10 02:06:10;;;;;;;29.20;24.90;;;;;;;;;;44350;272;3032062;-34
2024/01/10 02:08:06;;;;;;;30.10;24.80;;;;;;;;;;44318;272;3030724;-34
2024/01/10 02:10:00;;;;;;;29.50;24.70;;;;;;;;;;44383;272;3031036;-34
2024/01/10 02:11:55;;;;;;;29.80;25.00;;;;;;;;;;43643;264;3031120;-34
2024/01/10 02:13:45;;;;;;;29.30;25.10;;;;;;;;;;43575;272;3031513;-34
2024/01/10 02:15:41;;;;;;;29.30;23.90;;;;;;;;;;43615;268;3038083;-34
2024/01/10 02:17:29;;;;;;;28.60;24.30;;;;;;;;;;43808;272;3031499;-33
2024/01/10 02:19:29;;;;;;;27.50;23.40;;;;;;;;;;44352;272;3031268;-34
2024/01/10 02:21:17;;;;;;;29.70;24.60;;;;;;;;;;44397;272;3031438;-34
2024/01/10 02:23:08;;;;;;;29.80;25.30;;;;;;;;;;44104;272;3030879;-33
2024/01/10 02:25:05;;;;;;;29.30;24.60;;;;;;;;;;43570;284;3031455;-33
2024/01/10 02:26:54;;;;;;;29.70;25.30;;;;;;;;;;43963;272;3031174;-34
2024/01/10 02:28:50;;;;;;;28.70;24.00;;;;;;;;;;43602;272;3031440;-33
2024/01/10 02:30:38;;;;;;;28.90;24.70;;;;;;;;;;43600;272;3031322;-34
2024/01/10 02:32:29;;;;;;;31.00;25.00;;;;;;;;;;44333;264;3031244;-34
2024/01/10 02:34:17;;;;;;;29.50;24.30;;;;;;;;;;44287;269;3032326;-34
2024/01/10 02:36:11;;;;;;;30.70;24.90;;;;;;;;;;44255;272;3037186;-34
2024/01/10 02:38:41;;;;;;;30.00;24.30;;;;;;;;;;44243;308;3011639;-31
2024/01/10 02:40:36;;;;;;;28.30;24.00;;;;;;;;;;43866;284;3031172;-32
2024/01/10 02:42:31;;;;;;;29.70;24.70;;;;;;;;;;43392;281;3031696;-31
2024/01/10 02:44:28;;;;;;;29.50;24.40;;;;;;;;;;43971;295;3031526;-32
2024/01/10 02:46:16;;;;;;;28.40;23.90;;;;;;;;;;43389;274;3031934;-31
2024/01/10 02:48:09;;;;;;;28.60;24.00;;;;;;;;;;43932;282;3031088;-32
2024/01/10 02:50:00;;;;;;;29.00;24.20;;;;;;;;;;43937;294;3038126;-32
2024/01/10 02:51:55;;;;;;;28.20;23.70;;;;;;;;;;43959;295;3032208;-32
2024/01/10 02:54:01;;;;;;;28.80;23.70;;;;;;;;;;43864;280;3032813;-32
2024/01/10 02:55:59;;;;;;;28.60;23.60;;;;;;;;;;43952;273;3031787;-31
2024/01/10 02:57:54;;;;;;;27.80;23.10;;;;;;;;;;44164;280;3031173;-32
2024/01/10 02:59:42;;;;;;;29.10;23.60;;;;;;;;;;44112;280;3031757;-32
2024/01/10 03:01:39;;;;;;;28.90;23.80;;;;;;;;;;44117;276;3038110;-32
2024/01/10 03:03:46;;;;;;;29.40;23.60;;;;;;;;;;44142;280;3031916;-32
2024/01/10 03:05:43;;;;;;;27.90;23.20;;;;;;;;;;43535;280;3031883;-34
2024/01/10 03:07:34;;;;;;;29.50;24.20;;;;;;;;;;43468;269;3031567;-34
2024/01/10 03:09:32;;;;;;;29.20;24.10;;;;;;;;;;43437;280;3031855;-34
2024/01/10 03:11:20;;;;;;;27.70;22.70;;;;;;;;;;43584;280;3031169;-34
2024/01/10 03:13:10;;;;;;;28.00;24.00;;;;;;;;;;43469;268;3038580;-34
2024/01/10 03:15:02;;;;;;;27.60;23.00;;;;;;;;;;43443;279;3031826;-35
2024/01/10 03:17:02;;;;;;;28.40;23.40;;;;;;;;;;44177;271;3031889;-34
2024/01/10 03:18:52;;;;;;;28.80;23.90;;;;;;;;;;43770;263;3032065;-34
2024/01/10 03:20:42;;;;;;;27.50;22.70;;;;;;;;;;43619;263;3031274;-34
2024/01/10 03:22:33;;;;;;;27.70;22.80;;;;;;;;;;43589;267;3031708;-34
2024/01/10 03:24:24;;;;;;;29.60;23.80;;;;;;;;;;43603;271;3031801;-34
2024/01/10 03:26:20;;;;;;;28.90;23.90;;;;;;;;;;44343;271;3031707;-35
2024/01/10 03:28:12;;;;;;;27.60;23.40;;;;;;;;;;43733;268;3031845;-34
2024/01/10 03:30:05;;;;;;;29.70;23.40;;;;;;;;;;44347;264;3031776;-34
2024/01/10 03:31:58;;;;;;;27.70;22.70;;;;;;;;;;44311;268;3031561;-34
2024/01/10 03:33:50;;;;;;;28.30;22.90;;;;;;;;;;43939;275;3037428;-34
2024/01/10 03:35:38;;;;;;;28.50;23.20;;;;;;;;;;43619;275;3031065;-35
2024/01/10 03:37:31;;;;;;;27.30;22.90;;;;;;;;;;43625;267;3031424;-34
2024/01/10 03:39:22;;;;;;;28.80;24.10;;;;;;;;;;43642;262;3031574;-34
2024/01/10 03:41:08;;;;;;;28.40;23.70;;;;;;;;;;43617;270;3031680;-34
2024/01/10 03:43:00;;;;;;;27.00;23.10;;;;;;;;;;43648;270;3031286;-34
2024/01/10 03:44:54;;;;;;;28.60;23.00;;;;;;;;;;44349;271;3032468;-34
2024/01/10 03:46:47;;;;;;;28.60;23.80;;;;;;;;;;43905;270;3037968;-34
2024/01/10 03:48:36;;;;;;;26.80;22.40;;;;;;;;;;43652;270;3032839;-34
2024/01/10 03:50:31;;;;;;;28.00;23.80;;;;;;;;;;43639;263;3032617;-34
2024/01/10 03:52:25;;;;;;;29.30;23.50;;;;;;;;;;43625;271;3031232;-34
2024/01/10 03:54:13;;;;;;;27.70;23.50;;;;;;;;;;43610;271;3031096;-34
2024/01/10 03:56:06;;;;;;;29.40;24.10;;;;;;;;;;43704;267;3031626;-34
2024/01/10 03:58:02;;;;;;;27.40;22.60;;;;;;;;;;44367;270;3038026;-35
2024/01/10 04:01:07;;;;;;;28.50;23.30;;;;;;;;;;44300;303;3011694;-32
2024/01/10 04:02:57;;;;;;;28.30;23.10;;;;;;;;;;43111;293;3031591;-32
2024/01/10 04:04:48;;;;;;;27.20;22.60;;;;;;;;;;43125;288;3031060;-32
2024/01/10 04:06:41;;;;;;;26.10;22.60;;;;;;;;;;43620;288;3031543;-33
2024/01/10 04:08:28;;;;;;;27.30;22.90;;;;;;;;;;43115;288;3032003;-32
2024/01/10 04:10:19;;;;;;;27.70;22.90;;;;;;;;;;43966;285;3031780;-32
2024/01/10 04:12:10;;;;;;;27.80;22.80;;;;;;;;;;43593;281;3037738;-32
2024/01/10 04:15:14;;;;;;;29.10;23.90;;;;;;;;;;44288;306;3011807;-33
2024/01/10 04:17:06;;;;;;;25.60;21.80;;;;;;;;;;43848;284;3032487;-33
2024/01/10 04:18:55;;;;;;;29.10;22.60;;;;;;;;;;43455;285;3030870;-33
2024/01/10 04:20:45;;;;;;;28.20;22.90;;;;;;;;;;43429;269;3032222;-32
2024/01/10 04:22:40;;;;;;;27.20;22.30;;;;;;;;;;43773;269;3031697;-33
2024/01/10 04:24:32;;;;;;;27.60;22.90;;;;;;;;;;43423;281;3031694;-33
2024/01/10 04:26:23;;;;;;;28.80;22.90;;;;;;;;;;43427;273;3037168;-33
2024/01/10 04:28:13;;;;;;;27.90;23.30;;;;;;;;;;44342;273;3031090;-33
2024/01/10 04:30:00;;;;;;;28.20;22.90;;;;;;;;;;44028;271;3486397;-34
2024/01/10 04:31:51;;;;;;;29.00;23.20;;;;;;;;;;43983;268;3031449;-33
2024/01/10 04:33:43;;;;;;;27.70;22.50;;;;;;;;;;43628;268;3031810;-36
2024/01/10 04:35:34;;;;;;;27.50;22.40;;;;;;;;;;43604;264;3031561;-33
2024/01/10 04:37:26;;;;;;;28.10;23.20;;;;;;;;;;43626;267;3032324;-33
2024/01/10 04:39:21;;;;;;;29.20;23.50;;;;;;;;;;43623;271;3032037;-34
2024/01/10 04:41:23;;;;;;;28.60;22.70;;;;;;;;;;44347;272;3031015;-34
2024/01/10 04:43:24;;;;;;;27.40;22.80;;;;;;;;;;44365;264;3030865;-34
2024/01/10 04:45:13;;;;;;;27.80;22.30;;;;;;;;;;44339;271;3031269;-34
2024/01/10 04:47:10;;;;;;;27.50;22.00;;;;;;;;;;44338;271;3037525;-34
2024/01/10 04:49:06;;;;;;;28.10;22.50;;;;;;;;;;43925;271;3031766;-34
2024/01/10 04:50:56;;;;;;;29.10;22.80;;;;;;;;;;43689;268;3032336;-34
2024/01/10 04:52:51;;;;;;;29.20;23.00;;;;;;;;;;43618;263;3032714;-34
2024/01/10 04:54:38;;;;;;;;;;;;;;;;;;43641;268;3031785;-33
2024/01/10 04:56:31;;;;;;;29.10;22.40;;;;;;;;;;43598;275;3031817;-34
2024/01/10 04:58:19;;;;;;;27.30;22.10;;;;;;;;;;44343;271;3031759;-34
2024/01/10 05:00:21;;;;;;;27.20;22.20;;;;;;;;;;44369;271;3031674;-34
2024/01/10 05:02:15;;;;;;;28.20;22.90;;;;;;;;;;44292;264;3031564;-34
2024/01/10 05:04:06;;;;;;;28.10;22.60;;;;;;;;;;43605;268;3032646;-34
2024/01/10 05:06:03;;;;;;;27.40;22.70;;;;;;;;;;43582;272;3031099;-34
2024/01/10 05:07:56;;;;;;;27.50;22.30;;;;;;;;;;43959;269;3037527;-35
2024/01/10 05:09:45;;;;;;;27.40;22.60;;;;;;;;;;43635;263;3031681;-34
2024/01/10 05:11:39;;;;;;;26.60;22.30;;;;;;;;;;44082;271;3031198;-35
2024/01/10 05:13:33;;;;;;;;;;;;;;;;;;43622;275;3031621;-34
2024/01/10 05:15:34;;;;;;;28.20;22.00;;;;;;;;;;43578;264;3031588;-33
2024/01/10 05:17:29;;;;;;;27.60;22.30;;;;;;;;;;43536;276;3031525;-34
2024/01/10 05:19:17;;;;;;;26.60;22.10;;;;;;;;;;43572;272;3031189;-34
2024/01/10 05:21:20;;;;;;;28.30;22.90;;;;;;;;;;43554;276;3031513;-35
2024/01/10 05:23:11;;;;;;;26.80;22.10;;;;;;;;;;43559;269;3032651;-34
2024/01/10 05:25:09;;;;;;;26.40;22.10;;;;;;;;;;43572;272;3030959;-34
2024/01/10 05:26:59;;;;;;;27.80;22.10;;;;;;;;;;44215;268;3030966;-34
2024/01/10 05:28:51;;;;;;;29.80;22.90;;;;;;;;;;43544;269;3031964;-35
2024/01/10 05:30:43;;;;;;;27.50;22.40;;;;;;;;;;43780;269;3031289;-34
2024/01/10 05:32:32;;;;;;;28.00;23.10;;;;;;;;;;43546;270;3031558;-34
2024/01/10 05:34:21;;;;;;;27.60;23.00;;;;;;;;;;44208;269;3031175;-35
2024/01/10 05:36:28;;;;;;;27.30;22.90;;;;;;;;;;44327;269;3031970;-35
2024/01/10 05:38:19;;;;;;;27.70;22.70;;;;;;;;;;43836;269;3030940;-34
2024/01/10 05:40:20;;;;;;;27.40;22.90;;;;;;;;;;43520;276;3032319;-34
2024/01/10 05:42:15;;;;;;;27.80;22.90;;;;;;;;;;44214;268;3031634;-34
2024/01/10 05:44:10;;;;;;;27.60;23.30;;;;;;;;;;44320;272;3030856;-35
2024/01/10 05:45:57;;;;;;;;;;;;;;;;;;44367;272;3032776;-35
2024/01/10 05:47:56;;;;;;;27.50;21.90;;;;;;;;;;44277;269;3031098;-34
2024/01/10 05:49:42;;;;;;;27.90;22.40;;;;;;;;;;43864;272;3031629;-34
2024/01/10 05:51:40;;;;;;;27.10;22.60;;;;;;;;;;43640;269;3030988;-34
2024/01/10 05:53:33;;;;;;;27.20;22.60;;;;;;;;;;43656;268;3031054;-35
2024/01/10 05:55:23;;;;;;;28.40;23.00;;;;;;;;;;43559;264;3030969;-35
2024/01/10 05:57:21;;;;;;;28.10;23.00;;;;;;;;;;44184;269;3031374;-35
2024/01/10 05:59:16;;;;;;;28.80;22.80;;;;;;;;;;43846;264;3031539;-33
2024/01/10 06:01:13;;;;;;;28.70;23.80;;;;;;;;;;43527;270;3031640;-33
2024/01/10 06:03:07;;;;;;;27.20;23.60;;;;;;;;;;44319;268;3032252;-34
2024/01/10 06:05:05;;;;;;;27.90;23.00;;;;;;;;;;44322;272;3031156;-34
2024/01/10 06:07:07;;;;;;;27.90;23.00;;;;;;;;;;43895;272;3032717;-34
2024/01/10 06:08:57;;;;;;;26.90;22.80;;;;;;;;;;44308;268;3031959;-33
2024/01/10 06:10:53;;;;;;;29.30;23.70;;;;;;;;;;43542;273;3031689;-34
2024/01/10 06:12:51;;;;;;;27.40;23.00;;;;;;;;;;44248;270;3031389;-34
2024/01/10 06:14:40;;;;;;;27.70;23.00;;;;;;;;;;44329;272;3031160;-34
2024/01/10 06:16:33;;;;;;;27.10;23.30;;;;;;;;;;43846;285;3031139;-34
2024/01/10 06:18:27;;;;;;;27.20;23.30;;;;;;;;;;43597;272;3031585;-34
2024/01/10 06:20:18;;;;;;;29.60;24.40;;;;;;;;;;43787;271;3031423;-34
2024/01/10 06:22:04;;;;;;;28.10;23.30;;;;;;;;;;43613;275;3038148;-34
2024/01/10 06:24:02;;;;;;;28.60;23.60;;;;;;;;;;43705;275;3031302;-34
2024/01/10 06:25:55;;;;;;;29.10;23.80;;;;;;;;;;43617;268;3031738;-33
2024/01/10 06:27:47;;;;;;;28.00;23.90;;;;;;;;;;43622;275;3031530;-34
2024/01/10 06:29:37;;;;;;;27.30;23.20;;;;;;;;;;43593;275;3031440;-34
2024/01/10 06:31:32;;;;;;;27.20;22.70;;;;;;;;;;44369;271;3031369;-35
2024/01/10 06:33:25;;;;;;;27.00;22.70;;;;;;;;;;43624;268;3032101;-35
2024/01/10 06:35:20;;;;;;;27.30;23.00;;;;;;;;;;43620;268;3031834;-34
2024/01/10 06:37:13;;;;;;;26.90;23.10;;;;;;;;;;43620;264;3032205;-35
2024/01/10 06:39:15;;;;;;;27.60;23.10;;;;;;;;;;44376;271;3031693;-34
2024/01/10 06:41:17;;;;;;;27.80;23.70;;;;;;;;;;43884;263;3031783;-34
2024/01/10 06:43:16;;;;;;;28.30;23.50;;;;;;;;;;44301;268;3030951;-35
2024/01/10 06:46:30;;;;;;;28.30;23.90;;;;;;;;;;44200;308;3012470;-32
2024/01/10 06:48:19;;;;;;;29.00;24.40;;;;;;;;;;43058;290;3031321;-32
2024/01/10 06:50:19;;;;;;;28.20;23.20;;;;;;;;;;43831;299;3032191;-32
2024/01/10 06:52:22;;;;;;;28.00;23.10;;;;;;;;;;43790;286;3031127;-35
2024/01/10 06:54:15;;;;;;;28.10;23.30;;;;;;;;;;43362;290;3032015;-35
2024/01/10 06:56:13;;;;;;;27.30;23.80;;;;;;;;;;43169;298;3030911;-34
2024/01/10 06:58:09;;;;;;;28.40;24.00;;;;;;;;;;43341;290;3037732;-34
2024/01/10 07:00:01;;;;;;;28.30;23.70;;;;;;;;;;42956;297;3168171;-34
2024/01/10 07:02:01;;;;;;;28.60;23.50;;;;;;;;;;43157;288;3032543;-34
2024/01/10 07:03:59;;;;;;;27.70;23.40;;;;;;;;;;43601;282;3031072;-34
2024/01/10 07:06:06;;;;;;;29.10;23.70;;;;;;;;;;44069;282;3031858;-34
2024/01/10 07:07:58;;;;;;;28.00;23.20;;;;;;;;;;44042;282;3031375;-35
2024/01/10 07:11:16;;;;;;;27.50;23.30;;;;;;;;;;44262;306;3012343;-34
2024/01/10 07:13:10;;;;;;;29.00;23.20;;;;;;;;;;43835;284;3031520;-35
2024/01/10 07:15:09;;;;;;;29.30;24.20;;;;;;;;;;43377;288;3031593;-34
2024/01/10 07:17:00;;;;;;;27.30;23.20;;;;;;;;;;43685;288;3031315;-34
2024/01/10 07:18:51;;;;;;;28.70;24.70;;;;;;;;;;43128;288;3031787;-34
2024/01/10 07:20:48;;;;;;;28.90;23.50;;;;;;;;;;43764;276;3030986;-34
2024/01/10 07:22:41;;;;;;;29.40;24.10;;;;;;;;;;43214;286;3038188;-34
2024/01/10 07:24:37;;;;;;;28.80;23.90;;;;;;;;;;43135;278;3031556;-34
2024/01/10 07:26:29;;;;;;;28.30;23.40;;;;;;;;;;44028;280;3031248;-35
2024/01/10 07:28:23;;;;;;;28.70;24.10;;;;;;;;;;43739;276;3031633;-34
2024/01/10 07:30:32;;;;;;;28.60;24.30;;;;;;;;;;43316;272;3031722;-34
2024/01/10 07:32:23;;;;;;;30.40;23.90;;;;;;;;;;44085;273;3031236;-34
2024/01/10 07:34:18;;;;;;;28.80;24.10;;;;;;;;;;44003;283;3031586;-34
2024/01/10 07:36:22;;;;;;;28.90;24.30;;;;;;;;;;44089;271;3031529;-35
2024/01/10 07:38:20;;;;;;;29.00;24.40;;;;;;;;;;44126;276;3031652;-35
2024/01/10 07:40:27;;;;;;;30.30;24.30;;;;;;;;;;44161;279;3031889;-35
2024/01/10 07:42:24;;;;;;;27.60;23.90;;;;;;;;;;44133;271;3031063;-34
2024/01/10 07:44:21;;;;;;;29.40;24.80;;;;;;;;;;44165;271;3030932;-34
2024/01/10 07:46:22;;;;;;;30.30;24.60;;;;;;;;;;44231;271;3031151;-34
2024/01/10 07:48:21;;;;;;;30.20;24.10;;;;;;;;;;43522;272;3031001;-34
2024/01/10 07:50:14;;;;;;;29.20;24.00;;;;;;;;;;43452;271;3032666;-34
2024/01/10 07:52:04;;;;;;;29.00;24.20;;;;;;;;;;44174;272;3031612;-34
2024/01/10 07:54:02;;;;;;;28.50;23.80;;;;;;;;;;43828;279;3031377;-34
2024/01/10 07:55:51;;;;;;;28.90;23.60;;;;;;;;;;43703;268;3031295;-34
2024/01/10 07:57:48;;;;;;;27.70;23.50;;;;;;;;;;44309;275;3031083;-35
2024/01/10 07:59:46;;;;;;;27.20;23.50;;;;;;;;;;43587;279;3032158;-34
2024/01/10 08:01:35;;;;;;;28.60;24.60;;;;;;;;;;43459;279;3031875;-34
2024/01/10 08:03:27;;;;;;;28.00;23.70;;;;;;;;;;43426;271;3031846;-34
2024/01/10 08:05:15;;;;;;;29.90;24.70;;;;;;;;;;43461;279;3032051;-34
2024/01/10 08:07:04;;;;;;;29.30;24.40;;;;;;;;;;43915;275;3031746;-34
2024/01/10 08:08:58;;;;;;;29.60;24.00;;;;;;;;;;43456;268;3032061;-34
2024/01/10 08:10:50;;;;;;;27.30;23.90;;;;;;;;;;44098;275;3031400;-34
2024/01/10 08:12:45;;;;;;;29.60;24.70;;;;;;;;;;44200;268;3031480;-34
2024/01/10 08:14:41;;;;;;;28.30;23.40;;;;;;;;;;44026;275;3031095;-34
2024/01/10 08:16:33;;;;;;;30.20;25.20;;;;;;;;;;43458;271;3033466;-34
2024/01/10 08:18:25;;;;;;;29.50;24.50;;;;;;;;;;43456;275;3031651;-34
2024/01/10 08:20:20;;;;;;;28.10;25.00;;;;;;;;;;43461;271;3032255;-34
2024/01/10 08:22:21;;;;;;;27.90;24.10;;;;;;;;;;44154;280;3031922;-34
2024/01/10 08:24:15;;;;;;;31.00;24.20;;;;;;;;;;44029;282;3031307;-34
2024/01/10 08:26:11;;;;;;;28.20;24.10;;;;;;;;;;43405;281;3031775;-34
2024/01/10 08:28:09;;;;;;;27.50;23.30;;;;;;;;;;44144;276;3031483;-34
2024/01/10 08:30:05;;;;;;;27.60;23.70;;;;;;;;;;44115;280;3031533;-34
2024/01/10 08:32:08;;;;;;;28.50;23.70;;;;;;;;;;44107;280;3032153;-34
2024/01/10 08:34:08;;;;;;;29.10;24.60;;;;;;;;;;43444;276;3031802;-34
2024/01/10 08:35:58;;;;;;;30.20;24.70;;;;;;;;;;43438;280;3031488;-34
2024/01/10 08:37:49;;;;;;;27.50;24.10;;;;;;;;;;43399;281;3031198;-34
2024/01/10 08:39:46;;;;;;;29.40;24.50;;;;;;;;;;44173;282;3031273;-34
2024/01/10 08:41:33;;;;;;;28.40;24.00;;;;;;;;;;43579;272;3032386;-34
2024/01/10 08:43:22;;;;;;;28.20;23.80;;;;;;;;;;44108;272;3031709;-34
2024/01/10 08:45:17;;;;;;;27.70;23.90;;;;;;;;;;43452;268;3031123;-34
2024/01/10 08:47:11;;;;;;;28.70;23.50;;;;;;;;;;43489;280;3037586;-34
2024/01/10 08:49:12;;;;;;;29.10;23.60;;;;;;;;;;44208;272;3031600;-34
2024/01/10 08:51:03;;;;;;;27.40;23.50;;;;;;;;;;44103;284;3031451;-34
2024/01/10 08:52:48;;;;;;;27.50;23.50;;;;;;;;;;44051;276;3031631;-34
2024/01/10 08:54:45;;;;;;;27.10;23.20;;;;;;;;;;43432;279;3032101;-34
2024/01/10 08:56:39;;;;;;;27.30;23.20;;;;;;;;;;44136;272;3031778;-35
2024/01/10 09:00:20;;;;;;;28.30;24.10;;;;;;;;;;44350;299;3012829;-34
2024/01/10 09:02:07;;;;;;;27.90;23.50;;;;;;;;;;43334;284;3031260;-34
2024/01/10 09:04:01;;;;;;;27.70;23.40;;;;;;;;;;43962;285;3031546;-34
2024/01/10 09:05:48;;;;;;;27.00;23.20;;;;;;;;;;43803;283;3031149;-35
2024/01/10 09:07:53;;;;;;;28.90;23.60;;;;;;;;;;43300;275;3032012;-34
2024/01/10 09:09:40;;;;;;;27.80;23.30;;;;;;;;;;44007;279;3031503;-35
2024/01/10 09:11:31;;;;;;;27.20;23.20;;;;;;;;;;43985;279;3038834;-34
2024/01/10 09:13:22;;;;;;;27.10;23.00;;;;;;;;;;43411;272;3240834;-34
2024/01/10 09:15:19;;;;;;;28.30;23.30;;;;;;;;;;43435;280;3031272;-34
2024/01/10 09:17:07;;;;;;;28.40;23.70;;;;;;;;;;43475;288;3031884;-33
2024/01/10 09:18:59;;;;;;;28.10;23.00;;;;;;;;;;44131;281;3031257;-34
2024/01/10 09:20:54;;;;;;;29.00;23.90;;;;;;;;;;43714;277;3031494;-34
2024/01/10 09:22:43;;;;;;;27.30;22.80;;;;;;;;;;43492;280;3037444;-34
2024/01/10 09:24:28;;;;;;;28.00;23.60;;;;;;;;;;43592;280;3030931;-34
2024/01/10 09:26:29;;;;;;;27.60;23.40;;;;;;;;;;43489;288;3031871;-35
2024/01/10 09:28:19;;;;;;;28.20;23.00;;;;;;;;;;43471;267;3032160;-34
2024/01/10 09:30:16;;;;;;;27.40;23.70;;;;;;;;;;43487;267;3031467;-33
2024/01/10 09:32:06;;;;;;;28.00;23.00;;;;;;;;;;43601;280;3031343;-34
2024/01/10 09:34:01;;;;;;;27.60;23.20;;;;;;;;;;43501;280;3031523;-33
2024/01/10 09:35:52;;;;;;;27.00;23.60;;;;;;;;;;43488;276;3032109;-33
2024/01/10 09:37:45;;;;;;;26.70;22.80;;;;;;;;;;43957;284;3031513;-33
2024/01/10 09:39:38;;;;;;;28.20;23.50;;;;;;;;;;43654;280;3031849;-34
2024/01/10 09:41:28;;;;;;;27.00;22.60;;;;;;;;;;43435;280;3031235;-33
2024/01/10 09:43:17;;;;;;;26.80;23.10;;;;;;;;;;43429;281;3037590;-33
2024/01/10 09:45:02;;;;;;;26.10;22.40;;;;;;;;;;43790;268;3032381;-33
2024/01/10 09:46:54;;;;;;;26.60;22.10;;;;;;;;;;44140;276;3031975;-33
2024/01/10 09:48:41;;;;;;;26.20;22.60;;;;;;;;;;43745;268;3032293;-33
2024/01/10 09:50:27;;;;;;;26.20;22.60;;;;;;;;;;43573;289;3031238;-33
2024/01/10 09:52:27;;;;;;;26.60;22.50;;;;;;;;;;43445;280;3031817;-33
2024/01/10 09:54:21;;;;;;;27.40;22.50;;;;;;;;;;43818;279;3032431;-33
2024/01/10 09:58:16;;;;;;;27.20;21.90;;;;;;;;;;44223;276;3031646;-33
2024/01/10 10:00:10;;;;;;;25.90;22.10;;;;;;;;;;43470;288;3031431;-33
2024/01/10 10:01:58;;;;;;;25.30;21.60;;;;;;;;;;43751;284;3031089;-33
2024/01/10 10:03:59;;;;;;;25.90;22.10;;;;;;;;;;44031;272;3038147;-33
2024/01/10 10:05:42;;;;;;;25.50;21.30;;;;;;;;;;44185;276;3032204;-33
2024/01/10 10:07:31;;;;;;;24.00;21.30;;;;;;;;;;43617;272;3031495;-33
2024/01/10 10:09:21;;;;;;;24.70;21.70;;;;;;;;;;43446;268;3031659;-33
2024/01/10 10:11:16;;;;;;;24.90;21.40;;;;;;;;;;43465;273;3031287;-33
2024/01/10 10:13:07;;;;;;;25.40;20.70;;;;;;;;;;44055;273;3031759;-32
2024/01/10 10:14:56;;;;;;;25.10;20.90;;;;;;;;;;43389;281;3031375;-31
2024/01/10 10:16:41;;;;;;;24.80;20.70;;;;;;;;;;43439;273;3031522;-31
2024/01/10 10:18:33;;;;;;;24.20;20.50;;;;;;;;;;43418;280;3032045;-31
2024/01/10 10:20:32;;;;;;;25.20;20.80;;;;;;;;;;44192;269;3032279;-31
2024/01/10 10:22:13;;;;;;;24.10;20.30;;;;;;;;;;44131;267;3030869;-31
2024/01/10 10:24:13;;;;;;;23.10;20.10;;;;;;;;;;43435;276;3031748;-32
2024/01/10 10:26:20;;;;;;;24.40;19.90;;;;;;;;;;44138;277;3031421;-32
2024/01/10 10:28:08;;;;;;;23.30;20.00;;;;;;;;;;44155;273;3032034;-32
2024/01/10 10:30:18;;;;;;;22.90;19.40;;;;;;;;;;44121;273;3031675;-32
2024/01/10 10:32:08;;;;;;;23.30;19.50;;;;;;;;;;43566;269;3031850;-31
2024/01/10 10:33:57;;;;;;;22.10;19.40;;;;;;;;;;43991;274;3030548;-31
2024/01/10 10:35:50;;;;;;;22.90;19.30;;;;;;;;;;43411;290;3031396;-31
2024/01/10 10:37:45;;;;;;;22.10;19.50;;;;;;;;;;43424;290;3031055;-32
2024/01/10 10:39:38;;;;;;;22.10;19.20;;;;;;;;;;43439;269;3032017;-32
2024/01/10 10:41:34;;;;;;;23.60;19.50;;;;;;;;;;43444;280;3032394;-31
2024/01/10 10:43:24;;;;;;;22.80;18.90;;;;;;;;;;43413;281;3031920;-32
2024/01/10 10:45:18;;;;;;;21.40;18.90;;;;;;;;;;43422;281;3031224;-32
2024/01/10 10:47:12;;;;;;;21.70;18.50;;;;;;;;;;44090;281;3037751;-32
2024/01/10 10:50:21;;;;;;;21.50;18.80;;;;;;;;;;44266;307;3012317;-31
2024/01/10 10:52:16;;;;;;;22.10;18.80;;;;;;;;;;43410;286;3032705;-32
2024/01/10 10:54:05;;;;;;;20.90;18.00;;;;;;;;;;43432;285;3031383;-32
2024/01/10 10:55:53;;;;;;;21.30;18.00;;;;;;;;;;43404;274;3030899;-33
2024/01/10 10:57:50;;;;;;;20.30;17.50;;;;;;;;;;44100;282;3031299;-33
2024/01/10 10:59:53;;;;;;;19.80;17.00;;;;;;;;;;43583;278;3031996;-33
2024/01/10 11:01:46;;;;;;;21.10;17.80;;;;;;;;;;43395;282;3037937;-33
2024/01/10 11:03:39;;;;;;;20.90;17.30;;;;;;;;;;43171;274;3032471;-33
2024/01/10 11:05:30;;;;;;;20.70;17.50;;;;;;;;;;44105;280;3031095;-33